createdAt,value
2023-05-06T00:00:42.801Z,15.27
2023-05-06T00:03:10.297Z,14.35
2023-05-06T00:05:37.839Z,12.52
2023-05-06T00:08:06.046Z,13.95
2023-05-06T00:10:33.512Z,16.20
2023-05-06T00:13:00.947Z,13.63
2023-05-06T00:15:30.112Z,15.10
2023-05-06T00:17:59.014Z,16.05
2023-05-06T00:20:27.276Z,14.45
2023-05-06T00:22:55.108Z,15.05
2023-05-06T00:25:22.638Z,18.08
2023-05-06T00:27:50.007Z,15.90
2023-05-06T00:30:17.601Z,13.50
2023-05-06T00:32:45.023Z,14.45
2023-05-06T00:35:13.559Z,15.63
2023-05-06T00:37:41.119Z,16.55
2023-05-06T00:40:09.839Z,14.57
2023-05-06T00:42:37.410Z,17.60
2023-05-06T00:45:06.224Z,14.63
2023-05-06T00:47:33.879Z,13.25
2023-05-06T00:50:01.736Z,15.30
2023-05-06T00:52:29.205Z,18.30
2023-05-06T00:54:56.977Z,14.85
2023-05-06T00:57:24.777Z,16.65
2023-05-06T00:59:52.174Z,15.88
2023-05-06T01:02:19.590Z,16.85
2023-05-06T01:04:47.340Z,14.27
2023-05-06T01:07:41.697Z,17.52
2023-05-06T01:10:24.492Z,12.50
2023-05-06T01:12:55.306Z,13.93
2023-05-06T01:15:33.537Z,12.82
2023-05-06T01:18:08.124Z,14.25
2023-05-06T01:20:38.378Z,15.18
2023-05-06T01:23:12.759Z,12.98
2023-05-06T01:25:40.636Z,14.95
2023-05-06T01:28:11.411Z,18.17
2023-05-06T01:30:57.994Z,14.05
2023-05-06T01:33:41.853Z,18.38
2023-05-06T01:36:28.640Z,11.93
2023-05-06T01:39:14.973Z,13.88
2023-05-06T01:41:43.997Z,13.40
2023-05-06T01:44:12.281Z,13.38
2023-05-06T01:46:42.956Z,13.32
2023-05-06T01:49:12.689Z,14.45
2023-05-06T01:51:40.181Z,13.15
2023-05-06T01:54:09.338Z,12.43
2023-05-06T01:56:37.020Z,15.05
2023-05-06T01:59:04.672Z,16.38
2023-05-06T02:01:32.436Z,13.70
2023-05-06T02:04:01.500Z,17.35
2023-05-06T02:06:29.602Z,19.25
2023-05-06T02:08:57.421Z,14.77
2023-05-06T02:11:26.312Z,16.92
2023-05-06T02:14:01.998Z,14.50
2023-05-06T02:16:31.600Z,15.68
2023-05-06T02:18:59.447Z,17.55
2023-05-06T02:21:27.874Z,13.55
2023-05-06T02:23:55.695Z,18.92
2023-05-06T02:26:23.573Z,20.15
2023-05-06T02:28:51.209Z,19.02
2023-05-06T02:31:18.925Z,18.10
2023-05-06T02:33:46.701Z,15.48
2023-05-06T02:36:14.358Z,18.17
2023-05-06T02:38:42.035Z,17.13
2023-05-06T02:41:10.593Z,17.02
2023-05-06T02:43:38.291Z,18.63
2023-05-06T02:46:06.108Z,13.57
2023-05-06T02:48:33.887Z,18.23
2023-05-06T02:51:02.095Z,22.10
2023-05-06T02:53:29.784Z,21.42
2023-05-06T02:55:57.019Z,17.27
2023-05-06T02:58:24.587Z,15.90
2023-05-06T03:00:52.220Z,19.35
2023-05-06T03:03:19.648Z,26.92
2023-05-06T03:05:47.443Z,21.73
2023-05-06T03:08:15.163Z,19.20
2023-05-06T03:10:43.088Z,30.98
2023-05-06T03:13:10.834Z,24.95
2023-05-06T03:15:38.762Z,25.95
2023-05-06T03:18:06.464Z,22.33
2023-05-06T03:20:35.089Z,21.42
2023-05-06T03:23:02.883Z,20.65
2023-05-06T03:25:31.041Z,18.65
2023-05-06T03:27:58.827Z,18.98
2023-05-06T03:30:28.165Z,18.55
2023-05-06T03:33:01.631Z,23.30
2023-05-06T03:35:32.365Z,19.00
2023-05-06T03:38:01.848Z,18.20
2023-05-06T03:40:38.041Z,17.05
2023-05-06T03:43:06.432Z,20.58
2023-05-06T03:45:34.601Z,24.25
2023-05-06T03:48:04.547Z,20.95
2023-05-06T03:50:34.530Z,25.95
2023-05-06T03:53:03.471Z,20.30
2023-05-06T03:55:33.486Z,24.33
2023-05-06T03:58:01.908Z,22.25
2023-05-06T04:00:29.658Z,22.85
2023-05-06T04:02:57.419Z,21.65
2023-05-06T04:05:31.702Z,22.67
2023-05-06T04:07:59.679Z,19.88
2023-05-06T04:10:27.520Z,21.13
2023-05-06T04:13:01.242Z,25.10
2023-05-06T04:15:36.587Z,23.85
2023-05-06T04:18:08.423Z,22.10
2023-05-06T04:20:38.903Z,26.05
2023-05-06T04:23:06.984Z,27.58
2023-05-06T04:25:35.846Z,24.45
2023-05-06T04:28:04.111Z,29.33
2023-05-06T04:30:32.567Z,21.23
2023-05-06T04:33:00.363Z,22.80
2023-05-06T04:35:28.338Z,26.70
2023-05-06T04:37:57.967Z,27.30
2023-05-06T04:42:58.352Z,32.47
2023-05-06T04:45:29.774Z,27.75
2023-05-06T04:47:57.937Z,25.02
2023-05-06T04:50:26.372Z,28.77
2023-05-06T04:52:54.861Z,24.42
2023-05-06T04:55:22.576Z,25.40
2023-05-06T04:57:53.399Z,25.50
2023-05-06T05:00:22.229Z,24.13
2023-05-06T05:02:50.149Z,28.27
2023-05-06T05:05:18.940Z,24.70
2023-05-06T05:07:50.031Z,31.20
2023-05-06T05:10:18.363Z,30.13
2023-05-06T05:12:46.909Z,27.42
2023-05-06T05:15:14.839Z,27.48
2023-05-06T05:17:42.809Z,27.23
2023-05-06T05:20:11.089Z,39.92
2023-05-06T05:22:38.888Z,37.65
2023-05-06T05:25:08.266Z,29.95
2023-05-06T05:27:36.558Z,43.05
2023-05-06T05:30:04.414Z,37.58
2023-05-06T05:32:35.751Z,48.83
2023-05-06T05:35:04.597Z,39.47
2023-05-06T05:37:32.813Z,37.75
2023-05-06T05:40:01.017Z,37.65
2023-05-06T05:42:33.573Z,36.92
2023-05-06T05:45:05.276Z,27.40
2023-05-06T05:47:33.459Z,30.42
2023-05-06T05:50:01.420Z,24.08
2023-05-06T05:52:30.409Z,26.70
2023-05-06T05:54:58.375Z,26.50
2023-05-06T05:57:26.110Z,25.85
2023-05-06T05:59:53.831Z,27.80
2023-05-06T06:02:21.744Z,24.55
2023-05-06T06:04:49.666Z,23.88
2023-05-06T06:07:17.376Z,20.38
2023-05-06T06:09:49.089Z,21.25
2023-05-06T06:12:18.157Z,24.35
2023-05-06T06:14:48.186Z,19.38
2023-05-06T06:17:20.163Z,19.38
2023-05-06T06:19:50.684Z,18.48
2023-05-06T06:22:18.495Z,21.90
2023-05-06T06:24:46.940Z,20.90
2023-05-06T06:27:14.685Z,22.15
2023-05-06T06:29:42.419Z,19.42
2023-05-06T06:32:10.188Z,26.77
2023-05-06T06:34:38.012Z,22.10
2023-05-06T06:37:07.407Z,22.50
2023-05-06T06:39:35.860Z,20.67
2023-05-06T06:42:07.114Z,21.00
2023-05-06T06:44:48.097Z,21.15
2023-05-06T06:47:15.871Z,21.77
2023-05-06T06:49:43.555Z,16.10
2023-05-06T06:52:11.238Z,17.38
2023-05-06T06:54:39.181Z,19.42
2023-05-06T06:57:07.531Z,20.15
2023-05-06T06:59:35.306Z,20.10
2023-05-06T07:02:03.258Z,18.67
2023-05-06T07:04:30.988Z,19.58
2023-05-06T07:06:58.740Z,19.25
2023-05-06T07:09:26.367Z,19.60
2023-05-06T07:11:54.058Z,19.52
2023-05-06T07:14:21.986Z,21.10
2023-05-06T07:16:51.467Z,20.55
2023-05-06T07:19:19.352Z,17.70
2023-05-06T07:21:47.071Z,21.60
2023-05-06T07:24:14.835Z,19.17
2023-05-06T07:26:42.612Z,19.65
2023-05-06T07:29:10.392Z,18.40
2023-05-06T07:31:38.100Z,20.48
2023-05-06T07:34:06.131Z,22.83
2023-05-06T07:36:40.334Z,19.85
2023-05-06T07:39:08.367Z,18.77
2023-05-06T07:41:36.125Z,17.85
2023-05-06T07:44:04.099Z,17.08
2023-05-06T07:46:31.910Z,19.52
2023-05-06T07:48:59.636Z,17.45
2023-05-06T07:51:28.140Z,18.00
2023-05-06T07:53:55.932Z,18.80
2023-05-06T07:56:23.572Z,20.58
2023-05-06T07:58:51.315Z,19.08
2023-05-06T08:01:19.030Z,17.52
2023-05-06T08:03:46.852Z,18.13
2023-05-06T08:06:14.589Z,23.35
2023-05-06T08:08:42.332Z,21.85
2023-05-06T08:11:10.045Z,20.85
2023-05-06T08:13:37.733Z,20.00
2023-05-06T08:16:06.834Z,18.42
2023-05-06T08:18:34.558Z,16.33
2023-05-06T08:21:02.315Z,19.90
2023-05-06T08:23:32.341Z,21.48
2023-05-06T08:26:00.090Z,21.85
2023-05-06T08:28:29.255Z,19.00
2023-05-06T08:30:56.907Z,21.50
2023-05-06T08:33:24.610Z,19.48
2023-05-06T08:35:53.429Z,20.25
2023-05-06T08:38:21.200Z,17.45
2023-05-06T08:40:49.373Z,26.30
2023-05-06T08:43:20.549Z,17.25
2023-05-06T08:45:48.477Z,16.67
2023-05-06T08:48:16.733Z,21.30
2023-05-06T08:50:44.473Z,20.65
2023-05-06T08:53:16.859Z,21.80
2023-05-06T08:55:44.966Z,18.55
2023-05-06T08:58:15.794Z,21.45
2023-05-06T09:00:43.965Z,27.95
2023-05-06T09:03:11.816Z,23.88
2023-05-06T09:05:39.635Z,20.95
2023-05-06T09:08:07.359Z,24.65
2023-05-06T09:10:47.915Z,23.58
2023-05-06T09:13:16.661Z,24.05
2023-05-06T09:15:47.214Z,22.55
2023-05-06T09:18:15.408Z,20.98
2023-05-06T09:20:49.496Z,20.17
2023-05-06T09:23:18.074Z,21.83
2023-05-06T09:25:46.493Z,16.30
2023-05-06T09:28:14.564Z,14.45
2023-05-06T09:30:43.080Z,17.85
2023-05-06T09:33:11.469Z,17.88
2023-05-06T09:35:40.330Z,19.65
2023-05-06T09:38:08.257Z,22.30
2023-05-06T09:40:36.687Z,24.52
2023-05-06T09:43:04.861Z,24.48
2023-05-06T09:45:33.000Z,24.08
2023-05-06T09:48:01.587Z,21.40
2023-05-06T09:50:29.387Z,19.52
2023-05-06T09:52:57.596Z,19.88
2023-05-06T09:55:27.199Z,17.08
2023-05-06T09:57:55.581Z,18.23
2023-05-06T10:00:28.231Z,17.25
2023-05-06T10:02:56.427Z,18.40
2023-05-06T10:05:25.649Z,18.38
2023-05-06T10:07:54.004Z,18.13
2023-05-06T10:10:23.500Z,20.90
2023-05-06T10:12:53.423Z,16.03
2023-05-06T10:15:21.240Z,15.65
2023-05-06T10:17:52.531Z,15.25
2023-05-06T10:20:22.038Z,19.03
2023-05-06T10:23:08.656Z,15.70
2023-05-06T10:25:37.377Z,17.27
2023-05-06T10:28:07.627Z,20.65
2023-05-06T10:30:38.537Z,30.98
2023-05-06T10:33:11.261Z,21.00
2023-05-06T10:35:50.917Z,24.90
2023-05-06T10:38:35.256Z,16.35
2023-05-06T10:41:03.218Z,16.60
2023-05-06T10:43:31.198Z,19.02
2023-05-06T10:46:00.569Z,20.92
2023-05-06T10:48:28.729Z,17.48
2023-05-06T10:51:14.780Z,31.45
2023-05-06T10:54:02.414Z,17.80
2023-05-06T10:56:37.289Z,25.38
2023-05-06T10:59:09.260Z,20.92
2023-05-06T11:01:38.217Z,20.90
2023-05-06T11:04:16.451Z,24.55
2023-05-06T11:06:48.831Z,23.20
2023-05-06T11:09:20.628Z,19.63
2023-05-06T11:11:51.990Z,20.23
2023-05-06T11:14:27.163Z,25.00
2023-05-06T11:16:56.903Z,18.13
2023-05-06T11:19:24.625Z,21.67
2023-05-06T11:21:53.316Z,18.60
2023-05-06T11:24:30.913Z,20.85
2023-05-06T11:26:59.922Z,21.75
2023-05-06T11:29:27.764Z,20.42
2023-05-06T11:31:55.290Z,20.02
2023-05-06T11:34:30.641Z,19.52
2023-05-06T11:37:03.947Z,18.25
2023-05-06T11:39:36.723Z,20.67
2023-05-06T11:42:08.556Z,15.80
2023-05-06T11:44:40.128Z,17.67
2023-05-06T11:47:09.344Z,20.00
2023-05-06T11:49:39.006Z,17.85
2023-05-06T11:52:07.728Z,20.83
2023-05-06T11:54:38.327Z,16.92
2023-05-06T11:57:06.309Z,20.10
2023-05-06T11:59:34.385Z,21.23
2023-05-06T12:02:04.113Z,17.77
2023-05-06T12:04:39.823Z,16.27
2023-05-06T12:07:09.162Z,15.10
2023-05-06T12:09:42.403Z,18.63
2023-05-06T12:12:10.887Z,15.77
2023-05-06T12:14:39.554Z,19.58
2023-05-06T12:17:07.256Z,17.33
2023-05-06T12:19:36.089Z,22.05
2023-05-06T12:22:15.897Z,16.13
2023-05-06T12:24:43.512Z,16.60
2023-05-06T12:27:10.921Z,19.13
2023-05-06T12:29:38.423Z,18.25
2023-05-06T12:32:10.835Z,18.83
2023-05-06T12:34:41.625Z,16.98
2023-05-06T12:37:09.080Z,16.30
2023-05-06T12:39:38.321Z,17.42
2023-05-06T12:42:06.660Z,22.27
2023-05-06T12:44:39.038Z,21.92
2023-05-06T12:47:08.307Z,19.50
2023-05-06T12:50:08.114Z,15.95
2023-05-06T12:52:44.581Z,23.70
2023-05-06T12:55:11.945Z,18.58
2023-05-06T12:57:39.277Z,18.73
2023-05-06T13:00:07.524Z,21.75
2023-05-06T13:02:34.963Z,16.48
2023-05-06T13:05:03.033Z,16.13
2023-05-06T13:07:30.401Z,16.02
2023-05-06T13:09:57.835Z,18.02
2023-05-06T13:12:25.255Z,17.95
2023-05-06T13:14:52.644Z,20.00
2023-05-06T13:17:20.219Z,16.80
2023-05-06T13:19:47.717Z,16.75
2023-05-06T13:22:15.221Z,14.43
2023-05-06T13:24:42.872Z,14.07
2023-05-06T13:27:10.538Z,17.00
2023-05-06T13:29:38.276Z,15.80
2023-05-06T13:32:08.418Z,16.40
2023-05-06T13:34:36.618Z,19.58
2023-05-06T13:37:04.080Z,20.67
2023-05-06T13:39:31.572Z,18.13
2023-05-06T13:41:59.025Z,14.57
2023-05-06T13:44:26.947Z,16.02
2023-05-06T13:46:54.450Z,15.35
2023-05-06T13:49:21.964Z,13.40
2023-05-06T13:51:49.869Z,14.57
2023-05-06T13:54:17.324Z,15.68
2023-05-06T13:56:44.786Z,15.98
2023-05-06T13:59:13.990Z,13.70
2023-05-06T14:01:42.362Z,16.63
2023-05-06T14:04:09.821Z,14.45
2023-05-06T14:06:38.241Z,19.08
2023-05-06T14:09:05.735Z,17.95
2023-05-06T14:11:33.211Z,15.43
2023-05-06T14:14:00.636Z,13.15
2023-05-06T14:16:28.157Z,16.60
2023-05-06T14:18:55.655Z,18.48
2023-05-06T14:21:23.319Z,17.08
2023-05-06T14:23:50.771Z,18.83
2023-05-06T14:26:18.204Z,17.30
2023-05-06T14:28:45.709Z,18.63
2023-05-06T14:31:13.186Z,17.08
2023-05-06T14:33:40.673Z,15.65
2023-05-06T14:36:08.283Z,18.77
2023-05-06T14:38:35.917Z,20.38
2023-05-06T14:41:03.300Z,16.95
2023-05-06T14:43:30.766Z,17.85
2023-05-06T14:45:58.225Z,19.40
2023-05-06T14:48:25.642Z,22.55
2023-05-06T14:50:53.073Z,25.77
2023-05-06T14:53:20.504Z,22.15
2023-05-06T14:55:48.914Z,16.90
2023-05-06T14:58:16.424Z,17.58
2023-05-06T15:00:44.760Z,16.20
2023-05-06T15:03:12.180Z,16.63
2023-05-06T15:05:39.771Z,20.58
2023-05-06T15:08:07.343Z,21.60
2023-05-06T15:10:34.728Z,17.65
2023-05-06T15:13:02.265Z,16.55
2023-05-06T15:15:29.760Z,21.30
2023-05-06T15:17:57.228Z,18.17
2023-05-06T15:20:24.616Z,18.65
2023-05-06T15:22:52.041Z,19.13
2023-05-06T15:25:33.561Z,17.88
2023-05-06T15:28:02.084Z,17.70
2023-05-06T15:30:29.542Z,19.27
2023-05-06T15:32:57.106Z,22.08
2023-05-06T15:35:24.460Z,17.95
2023-05-06T15:37:58.656Z,19.33
2023-05-06T15:40:26.809Z,18.50
2023-05-06T15:42:54.293Z,17.33
2023-05-06T15:45:22.247Z,21.75
2023-05-06T15:47:49.798Z,20.50
2023-05-06T15:50:32.078Z,18.80
2023-05-06T15:53:01.507Z,22.73
2023-05-06T15:55:29.533Z,16.45
2023-05-06T15:57:59.833Z,16.58
2023-05-06T16:00:28.110Z,16.15
2023-05-06T16:02:55.589Z,27.00
2023-05-06T16:05:23.064Z,21.27
2023-05-06T16:07:50.716Z,23.38
2023-05-06T16:10:18.136Z,21.73
2023-05-06T16:12:45.972Z,19.65
2023-05-06T16:15:13.379Z,20.38
2023-05-06T16:17:40.859Z,17.48
2023-05-06T16:20:10.494Z,28.70
2023-05-06T16:22:40.013Z,24.42
2023-05-06T16:25:07.858Z,23.65
2023-05-06T16:27:35.571Z,21.85
2023-05-06T16:30:03.120Z,24.60
2023-05-06T16:32:30.529Z,21.83
2023-05-06T16:34:59.354Z,21.17
2023-05-06T16:37:28.272Z,21.02
2023-05-06T16:39:55.984Z,17.85
2023-05-06T16:42:23.367Z,20.27
2023-05-06T16:44:51.661Z,17.90
2023-05-06T16:47:23.543Z,20.38
2023-05-06T16:52:19.132Z,20.05
2023-05-06T16:54:46.500Z,22.30
2023-05-06T16:57:13.951Z,24.98
2023-05-06T16:59:41.308Z,19.90
2023-05-06T17:02:08.777Z,21.45
2023-05-06T17:04:37.629Z,25.38
2023-05-06T17:07:05.641Z,20.95
2023-05-06T17:09:33.044Z,21.67
2023-05-06T17:12:00.889Z,23.63
2023-05-06T17:14:28.286Z,19.42
2023-05-06T17:16:56.282Z,22.35
2023-05-06T17:19:23.760Z,18.85
2023-05-06T17:21:51.145Z,22.23
2023-05-06T17:24:18.500Z,20.30
2023-05-06T17:26:46.097Z,23.27
2023-05-06T17:29:13.722Z,20.88
2023-05-06T17:31:41.113Z,22.13
2023-05-06T17:34:08.509Z,19.88
2023-05-06T17:36:35.883Z,19.05
2023-05-06T17:39:05.046Z,19.05
2023-05-06T17:41:33.469Z,17.80
2023-05-06T17:44:01.074Z,17.85
2023-05-06T17:46:28.552Z,22.10
2023-05-06T17:48:55.961Z,20.08
2023-05-06T17:51:23.412Z,24.27
2023-05-06T17:53:51.129Z,27.40
2023-05-06T17:56:20.181Z,20.80
2023-05-06T17:58:47.979Z,18.85
2023-05-06T18:01:15.587Z,21.60
2023-05-06T18:03:44.009Z,23.60
2023-05-06T18:06:12.549Z,25.63
2023-05-06T18:08:39.964Z,28.60
2023-05-06T18:11:07.374Z,25.83
2023-05-06T18:13:36.611Z,24.17
2023-05-06T18:16:04.792Z,22.50
2023-05-06T18:18:32.308Z,22.10
2023-05-06T18:20:59.742Z,21.40
2023-05-06T18:23:27.133Z,24.63
2023-05-06T18:25:54.491Z,21.23
2023-05-06T18:28:22.004Z,25.17
2023-05-06T18:30:49.418Z,25.00
2023-05-06T18:33:16.916Z,25.88
2023-05-06T18:35:44.298Z,30.38
2023-05-06T18:38:12.955Z,31.40
2023-05-06T18:40:41.131Z,33.15
2023-05-06T18:43:08.696Z,44.53
2023-05-06T18:45:36.203Z,38.65
2023-05-06T18:48:04.341Z,29.48
2023-05-06T18:50:31.811Z,32.70
2023-05-06T18:52:59.189Z,29.48
2023-05-06T18:55:26.713Z,23.20
2023-05-06T18:57:54.163Z,22.42
2023-05-06T19:00:22.496Z,22.63
2023-05-06T19:02:50.100Z,23.40
2023-05-06T19:05:17.889Z,29.10
2023-05-06T19:07:45.486Z,22.98
2023-05-06T19:10:13.873Z,25.58
2023-05-06T19:12:41.710Z,22.25
2023-05-06T19:15:12.139Z,29.85
2023-05-06T19:17:39.890Z,34.08
2023-05-06T19:20:08.225Z,33.38
2023-05-06T19:22:35.869Z,31.02
2023-05-06T19:25:03.353Z,31.15
2023-05-06T19:27:30.709Z,34.13
2023-05-06T19:29:58.165Z,30.48
2023-05-06T19:32:25.592Z,29.27
2023-05-06T19:34:52.988Z,30.25
2023-05-06T19:37:20.401Z,28.63
2023-05-06T19:39:49.591Z,30.75
2023-05-06T19:42:16.998Z,35.63
2023-05-06T19:44:44.392Z,30.02
2023-05-06T19:47:13.266Z,26.52
2023-05-06T19:49:40.726Z,27.50
2023-05-06T19:52:08.125Z,25.15
2023-05-06T19:54:35.619Z,25.77
2023-05-06T19:57:03.132Z,26.58
2023-05-06T19:59:30.572Z,27.73
2023-05-06T20:02:01.673Z,34.22
2023-05-06T20:04:29.171Z,28.20
2023-05-06T20:06:57.887Z,26.73
2023-05-06T20:09:25.293Z,24.45
2023-05-06T20:11:52.744Z,25.00
2023-05-06T20:14:20.163Z,27.30
2023-05-06T20:16:47.669Z,25.52
2023-05-06T20:19:15.090Z,24.23
2023-05-06T20:21:42.462Z,24.45
2023-05-06T20:24:09.837Z,26.38
2023-05-06T20:26:37.243Z,25.10
2023-05-06T20:29:04.651Z,27.73
2023-05-06T20:31:32.101Z,23.65
2023-05-06T20:33:59.558Z,25.95
2023-05-06T20:36:27.266Z,28.15
2023-05-06T20:38:54.685Z,33.17
2023-05-06T20:41:22.208Z,28.55
2023-05-06T20:43:52.896Z,30.83
2023-05-06T20:46:20.726Z,30.67
2023-05-06T20:48:48.334Z,25.58
2023-05-06T20:51:16.073Z,26.35
2023-05-06T20:53:43.616Z,26.42
2023-05-06T20:56:20.277Z,23.15
2023-05-06T20:58:48.006Z,22.30
2023-05-06T21:01:16.449Z,23.50
2023-05-06T21:03:46.355Z,20.48
2023-05-06T21:06:17.582Z,18.95
2023-05-06T21:08:46.380Z,18.55
2023-05-06T21:11:14.296Z,18.52
2023-05-06T21:13:41.894Z,19.33
2023-05-06T21:16:09.413Z,21.10
2023-05-06T21:18:37.015Z,18.42
2023-05-06T21:21:04.451Z,15.57
2023-05-06T21:23:32.534Z,17.63
2023-05-06T21:26:00.476Z,19.08
2023-05-06T21:28:27.891Z,17.52
2023-05-06T21:30:55.513Z,16.27
2023-05-06T21:33:22.969Z,17.27
2023-05-06T21:35:50.394Z,19.23
2023-05-06T21:38:17.788Z,41.95
2023-05-06T21:40:45.220Z,23.55
2023-05-06T21:43:12.811Z,18.77
2023-05-06T21:45:40.293Z,14.20
2023-05-06T21:48:07.824Z,18.50
2023-05-06T21:50:37.097Z,13.85
2023-05-06T21:53:04.659Z,14.45
2023-05-06T21:55:32.042Z,15.40
2023-05-06T21:57:59.502Z,16.15
2023-05-06T22:00:28.151Z,17.13
2023-05-06T22:02:55.945Z,16.20
2023-05-06T22:05:23.486Z,16.02
2023-05-06T22:07:51.018Z,17.52
2023-05-06T22:10:18.441Z,19.10
2023-05-06T22:12:45.865Z,18.25
2023-05-06T22:15:14.788Z,23.38
2023-05-06T22:17:42.414Z,18.27
2023-05-06T22:20:13.489Z,13.70
2023-05-06T22:22:40.899Z,17.33
2023-05-06T22:25:09.003Z,14.63
2023-05-06T22:27:36.777Z,16.23
2023-05-06T22:30:04.512Z,13.32
2023-05-06T22:32:32.513Z,14.18
2023-05-06T22:35:00.535Z,15.75
2023-05-06T22:37:28.090Z,12.57
2023-05-06T22:39:58.265Z,17.08
2023-05-06T22:42:25.734Z,16.92
2023-05-06T22:44:53.341Z,16.92
2023-05-06T22:47:20.875Z,19.70
2023-05-06T22:49:48.351Z,15.52
2023-05-06T22:52:16.783Z,19.67
2023-05-06T22:54:44.481Z,19.98
2023-05-06T22:57:12.033Z,21.48
2023-05-06T22:59:39.544Z,25.35
2023-05-06T23:02:06.926Z,25.48
2023-05-06T23:04:34.420Z,24.05
2023-05-06T23:07:02.173Z,23.77
2023-05-06T23:09:29.688Z,21.90
2023-05-06T23:11:57.037Z,26.58
2023-05-06T23:14:24.501Z,24.35
2023-05-06T23:16:51.927Z,22.60
2023-05-06T23:19:21.449Z,20.50
2023-05-06T23:21:48.953Z,21.77
2023-05-06T23:24:16.374Z,24.45
2023-05-06T23:26:43.746Z,26.33
2023-05-06T23:29:11.136Z,23.15
2023-05-06T23:31:38.519Z,19.05
2023-05-06T23:34:05.918Z,20.40
2023-05-06T23:36:34.100Z,25.35
2023-05-06T23:39:01.473Z,21.55
2023-05-06T23:41:28.818Z,17.17
2023-05-06T23:43:56.176Z,19.23
2023-05-06T23:46:23.678Z,20.88
2023-05-06T23:48:51.082Z,22.55
2023-05-06T23:51:18.449Z,22.92
2023-05-06T23:53:46.000Z,20.58
2023-05-06T23:56:13.424Z,22.83
2023-05-06T23:58:40.834Z,20.50
